sensor_id;sensor_type;location;lat;lon;timestamp;P1;durP1;ratioP1;P2;durP2;ratioP2
6985;SDS011;3533;51.246;6.850;2022-10-30T00:01:22;4.00;;;3.70;;
6985;SDS011;3533;51.246;6.850;2022-10-30T00:03:47;4.43;;;4.13;;
6985;SDS011;3533;51.246;6.850;2022-10-30T00:06:13;3.90;;;3.70;;
6985;SDS011;3533;51.246;6.850;2022-10-30T00:08:38;3.97;;;3.77;;
6985;SDS011;3533;51.246;6.850;2022-10-30T00:11:05;4.70;;;4.33;;
6985;SDS011;3533;51.246;6.850;2022-10-30T00:13:31;5.00;;;4.70;;
6985;SDS011;3533;51.246;6.850;2022-10-30T00:15:57;3.90;;;3.70;;
6985;SDS011;3533;51.246;6.850;2022-10-30T00:18:22;3.87;;;3.60;;
6985;SDS011;3533;51.246;6.850;2022-10-30T00:20:48;4.37;;;4.17;;
6985;SDS011;3533;51.246;6.850;2022-10-30T00:23:14;4.93;;;4.63;;
6985;SDS011;3533;51.246;6.850;2022-10-30T00:25:40;3.80;;;3.60;;
6985;SDS011;3533;51.246;6.850;2022-10-30T00:28:05;4.40;;;4.10;;
6985;SDS011;3533;51.246;6.850;2022-10-30T00:30:32;3.80;;;3.60;;
6985;SDS011;3533;51.246;6.850;2022-10-30T00:32:58;4.00;;;3.70;;
6985;SDS011;3533;51.246;6.850;2022-10-30T00:35:24;3.57;;;3.37;;
6985;SDS011;3533;51.246;6.850;2022-10-30T00:37:49;4.10;;;3.90;;
6985;SDS011;3533;51.246;6.850;2022-10-30T00:40:16;4.47;;;4.20;;
6985;SDS011;3533;51.246;6.850;2022-10-30T00:42:43;3.60;;;3.40;;
6985;SDS011;3533;51.246;6.850;2022-10-30T00:45:12;3.93;;;3.63;;
6985;SDS011;3533;51.246;6.850;2022-10-30T00:47:41;3.93;;;3.73;;
6985;SDS011;3533;51.246;6.850;2022-10-30T00:50:17;3.77;;;3.57;;
6985;SDS011;3533;51.246;6.850;2022-10-30T00:53:07;4.27;;;4.07;;
6985;SDS011;3533;51.246;6.850;2022-10-30T00:55:37;3.77;;;3.47;;
6985;SDS011;3533;51.246;6.850;2022-10-30T00:58:11;4.20;;;3.90;;
6985;SDS011;3533;51.246;6.850;2022-10-30T01:00:40;4.20;;;3.90;;
6985;SDS011;3533;51.246;6.850;2022-10-30T01:03:10;4.00;;;3.80;;
6985;SDS011;3533;51.246;6.850;2022-10-30T01:05:35;3.93;;;3.73;;
6985;SDS011;3533;51.246;6.850;2022-10-30T01:08:02;3.83;;;3.63;;
6985;SDS011;3533;51.246;6.850;2022-10-30T01:10:28;3.90;;;3.70;;
6985;SDS011;3533;51.246;6.850;2022-10-30T01:12:53;3.70;;;3.50;;
6985;SDS011;3533;51.246;6.850;2022-10-30T01:15:23;4.43;;;3.97;;
6985;SDS011;3533;51.246;6.850;2022-10-30T01:23:41;4.33;;;4.13;;
6985;SDS011;3533;51.246;6.850;2022-10-30T01:34:17;3.47;;;3.27;;
6985;SDS011;3533;51.246;6.850;2022-10-30T01:37:02;3.77;;;3.57;;
6985;SDS011;3533;51.246;6.850;2022-10-30T01:39:37;3.80;;;3.60;;
6985;SDS011;3533;51.246;6.850;2022-10-30T01:45:07;3.70;;;3.50;;
6985;SDS011;3533;51.246;6.850;2022-10-30T01:47:42;3.90;;;3.60;;
6985;SDS011;3533;51.246;6.850;2022-10-30T01:55:36;3.90;;;3.60;;
6985;SDS011;3533;51.246;6.850;2022-10-30T01:58:22;4.03;;;3.80;;
6985;SDS011;3533;51.246;6.850;2022-10-30T02:00:57;4.03;;;3.60;;
6985;SDS011;3533;51.246;6.850;2022-10-30T02:03:23;3.57;;;3.37;;
6985;SDS011;3533;51.246;6.850;2022-10-30T02:05:50;4.80;;;4.50;;
6985;SDS011;3533;51.246;6.850;2022-10-30T02:08:16;3.60;;;3.40;;
6985;SDS011;3533;51.246;6.850;2022-10-30T02:10:43;4.30;;;4.00;;
6985;SDS011;3533;51.246;6.850;2022-10-30T02:13:11;4.07;;;3.77;;
6985;SDS011;3533;51.246;6.850;2022-10-30T02:15:36;3.33;;;3.13;;
6985;SDS011;3533;51.246;6.850;2022-10-30T02:18:03;3.73;;;3.53;;
6985;SDS011;3533;51.246;6.850;2022-10-30T02:20:29;4.87;;;4.30;;
6985;SDS011;3533;51.246;6.850;2022-10-30T02:22:54;3.60;;;3.40;;
6985;SDS011;3533;51.246;6.850;2022-10-30T02:25:20;3.00;;;2.80;;
6985;SDS011;3533;51.246;6.850;2022-10-30T02:27:46;3.80;;;3.60;;
6985;SDS011;3533;51.246;6.850;2022-10-30T02:30:11;4.00;;;3.70;;
6985;SDS011;3533;51.246;6.850;2022-10-30T02:32:37;4.20;;;3.90;;
6985;SDS011;3533;51.246;6.850;2022-10-30T02:35:03;4.00;;;3.70;;
6985;SDS011;3533;51.246;6.850;2022-10-30T02:37:29;3.33;;;3.13;;
6985;SDS011;3533;51.246;6.850;2022-10-30T02:39:56;4.40;;;4.03;;
6985;SDS011;3533;51.246;6.850;2022-10-30T02:42:22;3.80;;;3.60;;
6985;SDS011;3533;51.246;6.850;2022-10-30T02:44:48;4.00;;;3.80;;
6985;SDS011;3533;51.246;6.850;2022-10-30T02:47:13;3.90;;;3.70;;
6985;SDS011;3533;51.246;6.850;2022-10-30T02:49:39;3.80;;;3.60;;
6985;SDS011;3533;51.246;6.850;2022-10-30T02:52:05;3.87;;;3.67;;
6985;SDS011;3533;51.246;6.850;2022-10-30T02:54:32;3.83;;;3.57;;
6985;SDS011;3533;51.246;6.850;2022-10-30T02:56:58;4.57;;;4.27;;
6985;SDS011;3533;51.246;6.850;2022-10-30T02:59:23;4.03;;;3.73;;
6985;SDS011;3533;51.246;6.850;2022-10-30T03:01:49;3.30;;;3.10;;
6985;SDS011;3533;51.246;6.850;2022-10-30T03:04:15;3.50;;;3.30;;
6985;SDS011;3533;51.246;6.850;2022-10-30T03:06:40;3.80;;;3.60;;
6985;SDS011;3533;51.246;6.850;2022-10-30T03:09:06;3.93;;;3.73;;
6985;SDS011;3533;51.246;6.850;2022-10-30T03:11:32;3.93;;;3.73;;
6985;SDS011;3533;51.246;6.850;2022-10-30T03:13:57;3.90;;;3.60;;
6985;SDS011;3533;51.246;6.850;2022-10-30T03:16:24;3.77;;;3.50;;
6985;SDS011;3533;51.246;6.850;2022-10-30T03:18:53;3.83;;;3.63;;
6985;SDS011;3533;51.246;6.850;2022-10-30T03:21:20;3.83;;;3.63;;
6985;SDS011;3533;51.246;6.850;2022-10-30T03:23:48;3.93;;;3.73;;
6985;SDS011;3533;51.246;6.850;2022-10-30T03:26:15;4.00;;;3.80;;
6985;SDS011;3533;51.246;6.850;2022-10-30T03:28:41;3.20;;;3.00;;
6985;SDS011;3533;51.246;6.850;2022-10-30T03:31:07;3.60;;;3.40;;
6985;SDS011;3533;51.246;6.850;2022-10-30T03:33:34;3.97;;;3.73;;
6985;SDS011;3533;51.246;6.850;2022-10-30T03:36:01;3.40;;;3.20;;
6985;SDS011;3533;51.246;6.850;2022-10-30T03:38:27;5.70;;;3.50;;
6985;SDS011;3533;51.246;6.850;2022-10-30T03:40:53;4.10;;;3.80;;
6985;SDS011;3533;51.246;6.850;2022-10-30T03:43:19;3.83;;;3.63;;
6985;SDS011;3533;51.246;6.850;2022-10-30T03:45:46;3.50;;;3.30;;
6985;SDS011;3533;51.246;6.850;2022-10-30T03:48:12;3.47;;;3.27;;
6985;SDS011;3533;51.246;6.850;2022-10-30T03:50:38;4.10;;;3.90;;
6985;SDS011;3533;51.246;6.850;2022-10-30T03:53:03;3.67;;;3.40;;
6985;SDS011;3533;51.246;6.850;2022-10-30T03:55:29;3.43;;;3.23;;
6985;SDS011;3533;51.246;6.850;2022-10-30T03:57:54;3.63;;;3.43;;
6985;SDS011;3533;51.246;6.850;2022-10-30T04:00:20;3.50;;;3.30;;
6985;SDS011;3533;51.246;6.850;2022-10-30T04:02:46;3.30;;;3.10;;
6985;SDS011;3533;51.246;6.850;2022-10-30T04:05:17;3.60;;;3.40;;
6985;SDS011;3533;51.246;6.850;2022-10-30T04:07:44;3.40;;;3.20;;
6985;SDS011;3533;51.246;6.850;2022-10-30T04:10:10;4.20;;;3.90;;
6985;SDS011;3533;51.246;6.850;2022-10-30T04:12:36;4.40;;;4.07;;
6985;SDS011;3533;51.246;6.850;2022-10-30T04:15:02;3.60;;;3.40;;
6985;SDS011;3533;51.246;6.850;2022-10-30T04:17:29;3.23;;;3.03;;
6985;SDS011;3533;51.246;6.850;2022-10-30T04:19:54;3.60;;;3.40;;
6985;SDS011;3533;51.246;6.850;2022-10-30T04:22:20;3.87;;;3.67;;
6985;SDS011;3533;51.246;6.850;2022-10-30T04:24:45;3.57;;;3.33;;
6985;SDS011;3533;51.246;6.850;2022-10-30T04:27:13;3.90;;;3.70;;
6985;SDS011;3533;51.246;6.850;2022-10-30T04:29:39;3.70;;;3.50;;
6985;SDS011;3533;51.246;6.850;2022-10-30T04:32:06;3.53;;;3.33;;
6985;SDS011;3533;51.246;6.850;2022-10-30T04:34:32;4.10;;;3.90;;
6985;SDS011;3533;51.246;6.850;2022-10-30T04:36:57;3.23;;;3.03;;
6985;SDS011;3533;51.246;6.850;2022-10-30T04:39:23;3.50;;;3.20;;
6985;SDS011;3533;51.246;6.850;2022-10-30T04:41:48;3.40;;;3.10;;
6985;SDS011;3533;51.246;6.850;2022-10-30T04:44:14;3.53;;;3.33;;
6985;SDS011;3533;51.246;6.850;2022-10-30T04:46:39;3.80;;;3.60;;
6985;SDS011;3533;51.246;6.850;2022-10-30T04:49:05;3.70;;;3.50;;
6985;SDS011;3533;51.246;6.850;2022-10-30T04:51:31;3.57;;;3.37;;
6985;SDS011;3533;51.246;6.850;2022-10-30T04:53:56;3.60;;;3.30;;
6985;SDS011;3533;51.246;6.850;2022-10-30T04:56:22;3.30;;;3.10;;
6985;SDS011;3533;51.246;6.850;2022-10-30T04:58:48;3.73;;;3.53;;
6985;SDS011;3533;51.246;6.850;2022-10-30T05:01:14;3.60;;;3.40;;
6985;SDS011;3533;51.246;6.850;2022-10-30T05:03:39;4.53;;;4.23;;
6985;SDS011;3533;51.246;6.850;2022-10-30T05:06:06;4.07;;;3.77;;
6985;SDS011;3533;51.246;6.850;2022-10-30T05:08:39;3.80;;;3.50;;
6985;SDS011;3533;51.246;6.850;2022-10-30T05:11:05;3.60;;;3.40;;
6985;SDS011;3533;51.246;6.850;2022-10-30T05:13:30;3.50;;;3.30;;
6985;SDS011;3533;51.246;6.850;2022-10-30T05:15:56;3.63;;;3.43;;
6985;SDS011;3533;51.246;6.850;2022-10-30T05:18:21;3.40;;;3.20;;
6985;SDS011;3533;51.246;6.850;2022-10-30T05:20:47;4.13;;;3.73;;
6985;SDS011;3533;51.246;6.850;2022-10-30T05:23:13;3.60;;;3.40;;
6985;SDS011;3533;51.246;6.850;2022-10-30T05:25:38;3.90;;;3.70;;
6985;SDS011;3533;51.246;6.850;2022-10-30T05:28:04;4.10;;;3.80;;
6985;SDS011;3533;51.246;6.850;2022-10-30T05:30:31;3.53;;;3.33;;
6985;SDS011;3533;51.246;6.850;2022-10-30T05:33:02;3.80;;;3.60;;
6985;SDS011;3533;51.246;6.850;2022-10-30T05:35:29;3.50;;;3.30;;
6985;SDS011;3533;51.246;6.850;2022-10-30T05:37:59;3.20;;;3.00;;
6985;SDS011;3533;51.246;6.850;2022-10-30T05:40:25;4.23;;;4.00;;
6985;SDS011;3533;51.246;6.850;2022-10-30T05:42:51;3.97;;;3.70;;
6985;SDS011;3533;51.246;6.850;2022-10-30T05:45:17;3.80;;;3.50;;
6985;SDS011;3533;51.246;6.850;2022-10-30T05:47:43;3.33;;;3.13;;
6985;SDS011;3533;51.246;6.850;2022-10-30T05:50:21;3.20;;;3.03;;
6985;SDS011;3533;51.246;6.850;2022-10-30T05:52:47;3.57;;;3.37;;
6985;SDS011;3533;51.246;6.850;2022-10-30T05:55:13;3.47;;;3.27;;
6985;SDS011;3533;51.246;6.850;2022-10-30T05:57:38;3.50;;;3.30;;
6985;SDS011;3533;51.246;6.850;2022-10-30T06:00:04;3.87;;;3.67;;
6985;SDS011;3533;51.246;6.850;2022-10-30T06:02:31;3.50;;;3.30;;
6985;SDS011;3533;51.246;6.850;2022-10-30T06:04:56;3.47;;;3.27;;
6985;SDS011;3533;51.246;6.850;2022-10-30T06:07:22;3.97;;;3.63;;
6985;SDS011;3533;51.246;6.850;2022-10-30T06:09:47;3.63;;;3.43;;
6985;SDS011;3533;51.246;6.850;2022-10-30T06:12:13;3.20;;;3.10;;
6985;SDS011;3533;51.246;6.850;2022-10-30T06:14:39;4.10;;;3.80;;
6985;SDS011;3533;51.246;6.850;2022-10-30T06:17:04;3.97;;;3.57;;
6985;SDS011;3533;51.246;6.850;2022-10-30T06:19:30;3.30;;;3.10;;
6985;SDS011;3533;51.246;6.850;2022-10-30T06:21:55;3.43;;;3.23;;
6985;SDS011;3533;51.246;6.850;2022-10-30T06:24:21;2.80;;;2.70;;
6985;SDS011;3533;51.246;6.850;2022-10-30T06:26:46;3.43;;;3.23;;
6985;SDS011;3533;51.246;6.850;2022-10-30T06:29:12;3.57;;;3.27;;
6985;SDS011;3533;51.246;6.850;2022-10-30T06:31:37;3.17;;;2.97;;
6985;SDS011;3533;51.246;6.850;2022-10-30T06:34:03;3.80;;;3.60;;
6985;SDS011;3533;51.246;6.850;2022-10-30T06:36:29;3.57;;;3.37;;
6985;SDS011;3533;51.246;6.850;2022-10-30T06:38:54;3.90;;;3.70;;
6985;SDS011;3533;51.246;6.850;2022-10-30T06:41:20;3.67;;;3.40;;
6985;SDS011;3533;51.246;6.850;2022-10-30T06:43:45;2.90;;;2.70;;
6985;SDS011;3533;51.246;6.850;2022-10-30T06:46:11;3.67;;;3.47;;
6985;SDS011;3533;51.246;6.850;2022-10-30T06:48:37;3.00;;;2.90;;
6985;SDS011;3533;51.246;6.850;2022-10-30T06:51:02;3.40;;;3.20;;
6985;SDS011;3533;51.246;6.850;2022-10-30T06:53:28;3.30;;;3.10;;
6985;SDS011;3533;51.246;6.850;2022-10-30T06:55:57;3.10;;;2.90;;
6985;SDS011;3533;51.246;6.850;2022-10-30T06:58:24;3.50;;;3.30;;
6985;SDS011;3533;51.246;6.850;2022-10-30T07:00:51;2.87;;;2.77;;
6985;SDS011;3533;51.246;6.850;2022-10-30T07:03:17;3.40;;;3.20;;
6985;SDS011;3533;51.246;6.850;2022-10-30T07:05:42;3.10;;;2.90;;
6985;SDS011;3533;51.246;6.850;2022-10-30T07:08:08;3.97;;;3.77;;
6985;SDS011;3533;51.246;6.850;2022-10-30T07:10:34;3.50;;;3.30;;
6985;SDS011;3533;51.246;6.850;2022-10-30T07:12:59;4.23;;;3.93;;
6985;SDS011;3533;51.246;6.850;2022-10-30T07:15:25;4.07;;;3.13;;
6985;SDS011;3533;51.246;6.850;2022-10-30T07:17:52;3.60;;;3.40;;
6985;SDS011;3533;51.246;6.850;2022-10-30T07:20:25;3.83;;;3.60;;
6985;SDS011;3533;51.246;6.850;2022-10-30T07:22:52;3.20;;;3.00;;
6985;SDS011;3533;51.246;6.850;2022-10-30T07:25:19;3.10;;;2.80;;
6985;SDS011;3533;51.246;6.850;2022-10-30T07:27:45;3.60;;;3.40;;
6985;SDS011;3533;51.246;6.850;2022-10-30T07:30:12;3.57;;;3.37;;
6985;SDS011;3533;51.246;6.850;2022-10-30T07:32:42;3.00;;;2.80;;
6985;SDS011;3533;51.246;6.850;2022-10-30T07:35:08;3.13;;;2.93;;
6985;SDS011;3533;51.246;6.850;2022-10-30T07:37:36;3.30;;;3.00;;
6985;SDS011;3533;51.246;6.850;2022-10-30T07:40:02;3.37;;;3.17;;
6985;SDS011;3533;51.246;6.850;2022-10-30T07:42:27;3.37;;;3.17;;
6985;SDS011;3533;51.246;6.850;2022-10-30T07:44:53;3.63;;;3.00;;
6985;SDS011;3533;51.246;6.850;2022-10-30T07:47:19;3.10;;;2.90;;
6985;SDS011;3533;51.246;6.850;2022-10-30T07:49:44;3.03;;;2.93;;
6985;SDS011;3533;51.246;6.850;2022-10-30T07:52:10;3.13;;;2.93;;
6985;SDS011;3533;51.246;6.850;2022-10-30T07:54:35;3.30;;;3.10;;
6985;SDS011;3533;51.246;6.850;2022-10-30T07:57:01;3.33;;;3.13;;
6985;SDS011;3533;51.246;6.850;2022-10-30T07:59:27;3.57;;;3.27;;
6985;SDS011;3533;51.246;6.850;2022-10-30T08:01:53;3.30;;;3.10;;
6985;SDS011;3533;51.246;6.850;2022-10-30T08:04:18;3.30;;;3.10;;
6985;SDS011;3533;51.246;6.850;2022-10-30T08:06:44;3.80;;;3.50;;
6985;SDS011;3533;51.246;6.850;2022-10-30T08:09:09;3.80;;;3.60;;
6985;SDS011;3533;51.246;6.850;2022-10-30T08:11:35;3.00;;;2.80;;
6985;SDS011;3533;51.246;6.850;2022-10-30T08:14:00;3.17;;;2.97;;
6985;SDS011;3533;51.246;6.850;2022-10-30T08:16:26;3.37;;;3.17;;
6985;SDS011;3533;51.246;6.850;2022-10-30T08:18:52;3.27;;;3.03;;
6985;SDS011;3533;51.246;6.850;2022-10-30T08:21:18;3.60;;;3.40;;
6985;SDS011;3533;51.246;6.850;2022-10-30T08:23:44;3.50;;;3.30;;
6985;SDS011;3533;51.246;6.850;2022-10-30T08:26:09;3.57;;;3.37;;
6985;SDS011;3533;51.246;6.850;2022-10-30T08:28:35;3.37;;;3.17;;
6985;SDS011;3533;51.246;6.850;2022-10-30T08:31:00;3.40;;;3.20;;
6985;SDS011;3533;51.246;6.850;2022-10-30T08:33:26;3.10;;;2.90;;
6985;SDS011;3533;51.246;6.850;2022-10-30T08:35:53;3.50;;;3.30;;
6985;SDS011;3533;51.246;6.850;2022-10-30T08:38:23;3.30;;;3.00;;
6985;SDS011;3533;51.246;6.850;2022-10-30T08:40:49;3.60;;;3.40;;
6985;SDS011;3533;51.246;6.850;2022-10-30T08:43:15;3.40;;;3.10;;
6985;SDS011;3533;51.246;6.850;2022-10-30T08:45:40;3.60;;;3.40;;
6985;SDS011;3533;51.246;6.850;2022-10-30T08:48:08;3.00;;;2.70;;
6985;SDS011;3533;51.246;6.850;2022-10-30T08:50:35;3.43;;;3.10;;
6985;SDS011;3533;51.246;6.850;2022-10-30T08:53:01;3.07;;;2.87;;
6985;SDS011;3533;51.246;6.850;2022-10-30T08:55:28;3.53;;;3.33;;
6985;SDS011;3533;51.246;6.850;2022-10-30T08:57:55;3.20;;;3.00;;
6985;SDS011;3533;51.246;6.850;2022-10-30T09:00:20;3.50;;;3.20;;
6985;SDS011;3533;51.246;6.850;2022-10-30T09:02:46;3.80;;;3.60;;
6985;SDS011;3533;51.246;6.850;2022-10-30T09:05:11;2.73;;;2.53;;
6985;SDS011;3533;51.246;6.850;2022-10-30T09:07:37;3.80;;;3.20;;
6985;SDS011;3533;51.246;6.850;2022-10-30T09:10:02;3.43;;;3.20;;
6985;SDS011;3533;51.246;6.850;2022-10-30T09:12:28;2.80;;;2.70;;
6985;SDS011;3533;51.246;6.850;2022-10-30T09:14:54;3.57;;;3.27;;
6985;SDS011;3533;51.246;6.850;2022-10-30T09:17:19;3.00;;;2.80;;
6985;SDS011;3533;51.246;6.850;2022-10-30T09:19:45;4.00;;;3.70;;
6985;SDS011;3533;51.246;6.850;2022-10-30T09:22:10;3.60;;;3.40;;
6985;SDS011;3533;51.246;6.850;2022-10-30T09:24:36;3.87;;;3.63;;
6985;SDS011;3533;51.246;6.850;2022-10-30T09:27:03;3.40;;;3.20;;
6985;SDS011;3533;51.246;6.850;2022-10-30T09:29:29;3.60;;;3.30;;
6985;SDS011;3533;51.246;6.850;2022-10-30T09:31:55;3.83;;;3.63;;
6985;SDS011;3533;51.246;6.850;2022-10-30T09:34:21;3.77;;;3.53;;
6985;SDS011;3533;51.246;6.850;2022-10-30T09:36:47;3.53;;;3.33;;
6985;SDS011;3533;51.246;6.850;2022-10-30T09:39:13;3.67;;;3.47;;
6985;SDS011;3533;51.246;6.850;2022-10-30T09:41:44;3.60;;;3.40;;
6985;SDS011;3533;51.246;6.850;2022-10-30T10:06:47;3.90;;;3.60;;
6985;SDS011;3533;51.246;6.850;2022-10-30T10:09:21;4.63;;;4.33;;
6985;SDS011;3533;51.246;6.850;2022-10-30T10:11:53;4.97;;;4.67;;
6985;SDS011;3533;51.246;6.850;2022-10-30T10:14:27;4.30;;;3.50;;
6985;SDS011;3533;51.246;6.850;2022-10-30T10:16:56;4.07;;;3.77;;
6985;SDS011;3533;51.246;6.850;2022-10-30T10:19:30;5.80;;;5.40;;
6985;SDS011;3533;51.246;6.850;2022-10-30T10:22:03;5.20;;;4.80;;
6985;SDS011;3533;51.246;6.850;2022-10-30T10:24:38;4.03;;;3.83;;
6985;SDS011;3533;51.246;6.850;2022-10-30T10:35:59;4.90;;;4.60;;
6985;SDS011;3533;51.246;6.850;2022-10-30T10:44:00;5.70;;;5.30;;
6985;SDS011;3533;51.246;6.850;2022-10-30T10:52:14;5.70;;;4.80;;
6985;SDS011;3533;51.246;6.850;2022-10-30T10:54:52;5.23;;;4.57;;
6985;SDS011;3533;51.246;6.850;2022-10-30T10:57:25;6.47;;;5.40;;
6985;SDS011;3533;51.246;6.850;2022-10-30T10:59:55;5.83;;;5.40;;
6985;SDS011;3533;51.246;6.850;2022-10-30T11:02:33;6.97;;;5.07;;
6985;SDS011;3533;51.246;6.850;2022-10-30T11:05:15;4.47;;;4.10;;
6985;SDS011;3533;51.246;6.850;2022-10-30T11:07:51;4.77;;;4.47;;
6985;SDS011;3533;51.246;6.850;2022-10-30T11:10:22;6.03;;;4.90;;
6985;SDS011;3533;51.246;6.850;2022-10-30T11:12:49;5.10;;;4.67;;
6985;SDS011;3533;51.246;6.850;2022-10-30T11:18:27;5.37;;;4.90;;
6985;SDS011;3533;51.246;6.850;2022-10-30T11:21:00;6.00;;;5.50;;
6985;SDS011;3533;51.246;6.850;2022-10-30T11:23:43;4.93;;;4.63;;
6985;SDS011;3533;51.246;6.850;2022-10-30T11:33:51;5.23;;;4.93;;
6985;SDS011;3533;51.246;6.850;2022-10-30T11:36:21;4.73;;;4.37;;
6985;SDS011;3533;51.246;6.850;2022-10-30T11:38:48;5.30;;;4.97;;
6985;SDS011;3533;51.246;6.850;2022-10-30T11:41:14;5.60;;;5.00;;
6985;SDS011;3533;51.246;6.850;2022-10-30T11:43:40;5.30;;;5.00;;
6985;SDS011;3533;51.246;6.850;2022-10-30T11:46:08;5.67;;;5.27;;
6985;SDS011;3533;51.246;6.850;2022-10-30T11:48:41;4.90;;;4.50;;
6985;SDS011;3533;51.246;6.850;2022-10-30T11:51:08;4.50;;;4.30;;
6985;SDS011;3533;51.246;6.850;2022-10-30T11:53:36;5.00;;;4.60;;
6985;SDS011;3533;51.246;6.850;2022-10-30T11:56:21;4.70;;;4.40;;
6985;SDS011;3533;51.246;6.850;2022-10-30T11:58:48;4.60;;;4.40;;
6985;SDS011;3533;51.246;6.850;2022-10-30T12:03:52;5.00;;;4.70;;
6985;SDS011;3533;51.246;6.850;2022-10-30T12:11:36;4.83;;;4.50;;
6985;SDS011;3533;51.246;6.850;2022-10-30T12:14:03;4.67;;;4.30;;
6985;SDS011;3533;51.246;6.850;2022-10-30T12:16:29;5.20;;;4.73;;
6985;SDS011;3533;51.246;6.850;2022-10-30T12:18:57;5.10;;;4.80;;
6985;SDS011;3533;51.246;6.850;2022-10-30T12:21:26;5.10;;;4.80;;
6985;SDS011;3533;51.246;6.850;2022-10-30T12:23:59;4.40;;;4.10;;
6985;SDS011;3533;51.246;6.850;2022-10-30T12:26:30;5.30;;;4.90;;
6985;SDS011;3533;51.246;6.850;2022-10-30T12:28:59;4.60;;;4.40;;
6985;SDS011;3533;51.246;6.850;2022-10-30T12:31:33;5.17;;;4.87;;
6985;SDS011;3533;51.246;6.850;2022-10-30T12:34:08;5.53;;;5.03;;
6985;SDS011;3533;51.246;6.850;2022-10-30T12:42:36;6.13;;;4.97;;
6985;SDS011;3533;51.246;6.850;2022-10-30T12:47:40;4.80;;;3.87;;
6985;SDS011;3533;51.246;6.850;2022-10-30T12:50:24;4.57;;;4.27;;
6985;SDS011;3533;51.246;6.850;2022-10-30T12:53:05;4.87;;;4.57;;
6985;SDS011;3533;51.246;6.850;2022-10-30T12:55:38;5.43;;;4.33;;
6985;SDS011;3533;51.246;6.850;2022-10-30T13:04:13;4.90;;;4.60;;
6985;SDS011;3533;51.246;6.850;2022-10-30T13:06:50;5.20;;;4.67;;
6985;SDS011;3533;51.246;6.850;2022-10-30T13:12:24;5.67;;;5.17;;
6985;SDS011;3533;51.246;6.850;2022-10-30T13:14:59;5.13;;;4.83;;
6985;SDS011;3533;51.246;6.850;2022-10-30T13:17:30;5.00;;;4.60;;
6985;SDS011;3533;51.246;6.850;2022-10-30T13:19:55;5.17;;;4.87;;
6985;SDS011;3533;51.246;6.850;2022-10-30T13:22:22;4.40;;;4.10;;
6985;SDS011;3533;51.246;6.850;2022-10-30T13:25:04;5.20;;;4.80;;
6985;SDS011;3533;51.246;6.850;2022-10-30T13:27:50;5.27;;;4.90;;
6985;SDS011;3533;51.246;6.850;2022-10-30T13:30:26;5.10;;;4.80;;
6985;SDS011;3533;51.246;6.850;2022-10-30T13:35:47;5.43;;;4.90;;
6985;SDS011;3533;51.246;6.850;2022-10-30T13:38:43;6.47;;;4.37;;
6985;SDS011;3533;51.246;6.850;2022-10-30T13:49:32;5.00;;;4.60;;
6985;SDS011;3533;51.246;6.850;2022-10-30T13:52:14;5.00;;;4.70;;
6985;SDS011;3533;51.246;6.850;2022-10-30T13:54:43;5.10;;;4.90;;
6985;SDS011;3533;51.246;6.850;2022-10-30T13:57:25;5.20;;;4.80;;
6985;SDS011;3533;51.246;6.850;2022-10-30T14:08:26;5.03;;;4.73;;
6985;SDS011;3533;51.246;6.850;2022-10-30T14:11:04;5.30;;;4.80;;
6985;SDS011;3533;51.246;6.850;2022-10-30T14:18:26;7.00;;;5.60;;
6985;SDS011;3533;51.246;6.850;2022-10-30T14:20:57;5.20;;;4.80;;
6985;SDS011;3533;51.246;6.850;2022-10-30T14:23:43;4.97;;;4.67;;
6985;SDS011;3533;51.246;6.850;2022-10-30T14:28:35;5.43;;;5.10;;
6985;SDS011;3533;51.246;6.850;2022-10-30T14:31:12;4.80;;;4.50;;
6985;SDS011;3533;51.246;6.850;2022-10-30T14:33:55;6.40;;;4.43;;
6985;SDS011;3533;51.246;6.850;2022-10-30T14:36:24;8.77;;;4.93;;
6985;SDS011;3533;51.246;6.850;2022-10-30T14:41:42;5.00;;;4.67;;
6985;SDS011;3533;51.246;6.850;2022-10-30T14:45:13;4.77;;;4.23;;
6985;SDS011;3533;51.246;6.850;2022-10-30T14:47:33;5.23;;;4.50;;
6985;SDS011;3533;51.246;6.850;2022-10-30T14:50:30;10.33;;;4.50;;
6985;SDS011;3533;51.246;6.850;2022-10-30T14:58:38;29.97;;;6.07;;
6985;SDS011;3533;51.246;6.850;2022-10-30T15:09:16;6.30;;;4.50;;
6985;SDS011;3533;51.246;6.850;2022-10-30T15:14:43;4.10;;;3.50;;
6985;SDS011;3533;51.246;6.850;2022-10-30T15:17:27;7.47;;;4.90;;
6985;SDS011;3533;51.246;6.850;2022-10-30T15:19:56;12.33;;;5.47;;
6985;SDS011;3533;51.246;6.850;2022-10-30T15:22:25;20.87;;;4.50;;
6985;SDS011;3533;51.246;6.850;2022-10-30T15:24:52;24.93;;;5.90;;
6985;SDS011;3533;51.246;6.850;2022-10-30T15:27:19;12.10;;;5.07;;
6985;SDS011;3533;51.246;6.850;2022-10-30T15:29:50;34.83;;;5.90;;
6985;SDS011;3533;51.246;6.850;2022-10-30T15:32:20;23.17;;;5.10;;
6985;SDS011;3533;51.246;6.850;2022-10-30T15:37:26;27.40;;;7.00;;
6985;SDS011;3533;51.246;6.850;2022-10-30T15:42:44;15.53;;;4.33;;
6985;SDS011;3533;51.246;6.850;2022-10-30T15:45:15;18.00;;;4.30;;
6985;SDS011;3533;51.246;6.850;2022-10-30T15:48:05;27.80;;;5.70;;
6985;SDS011;3533;51.246;6.850;2022-10-30T15:50:40;32.33;;;9.10;;
6985;SDS011;3533;51.246;6.850;2022-10-30T15:53:17;127.77;;;22.60;;
6985;SDS011;3533;51.246;6.850;2022-10-30T15:55:44;146.90;;;29.47;;
6985;SDS011;3533;51.246;6.850;2022-10-30T15:58:12;452.40;;;82.13;;
6985;SDS011;3533;51.246;6.850;2022-10-30T16:00:41;253.97;;;48.10;;
6985;SDS011;3533;51.246;6.850;2022-10-30T16:03:18;124.80;;;29.90;;
6985;SDS011;3533;51.246;6.850;2022-10-30T16:05:43;98.00;;;27.80;;
6985;SDS011;3533;51.246;6.850;2022-10-30T16:08:19;93.20;;;21.10;;
6985;SDS011;3533;51.246;6.850;2022-10-30T16:10:47;90.53;;;21.50;;
6985;SDS011;3533;51.246;6.850;2022-10-30T16:13:15;80.07;;;19.40;;
6985;SDS011;3533;51.246;6.850;2022-10-30T16:15:43;78.73;;;16.80;;
6985;SDS011;3533;51.246;6.850;2022-10-30T16:18:18;54.87;;;13.80;;
6985;SDS011;3533;51.246;6.850;2022-10-30T16:20:47;49.93;;;13.00;;
6985;SDS011;3533;51.246;6.850;2022-10-30T16:23:18;33.70;;;11.37;;
6985;SDS011;3533;51.246;6.850;2022-10-30T16:25:44;27.57;;;10.40;;
6985;SDS011;3533;51.246;6.850;2022-10-30T16:28:21;22.50;;;8.43;;
6985;SDS011;3533;51.246;6.850;2022-10-30T16:31:00;12.67;;;8.23;;
6985;SDS011;3533;51.246;6.850;2022-10-30T16:33:31;15.00;;;7.43;;
6985;SDS011;3533;51.246;6.850;2022-10-30T16:35:59;14.77;;;7.07;;
6985;SDS011;3533;51.246;6.850;2022-10-30T16:38:28;10.73;;;5.87;;
6985;SDS011;3533;51.246;6.850;2022-10-30T16:40:57;10.37;;;5.40;;
6985;SDS011;3533;51.246;6.850;2022-10-30T16:45:49;7.03;;;4.93;;
6985;SDS011;3533;51.246;6.850;2022-10-30T16:48:17;8.90;;;5.10;;
6985;SDS011;3533;51.246;6.850;2022-10-30T16:50:51;5.73;;;4.47;;
6985;SDS011;3533;51.246;6.850;2022-10-30T16:53:22;4.93;;;4.53;;
6985;SDS011;3533;51.246;6.850;2022-10-30T16:55:49;4.27;;;3.80;;
6985;SDS011;3533;51.246;6.850;2022-10-30T16:58:16;5.57;;;4.20;;
6985;SDS011;3533;51.246;6.850;2022-10-30T17:00:50;3.87;;;3.53;;
6985;SDS011;3533;51.246;6.850;2022-10-30T17:03:18;4.67;;;4.27;;
6985;SDS011;3533;51.246;6.850;2022-10-30T17:06:02;4.33;;;3.97;;
6985;SDS011;3533;51.246;6.850;2022-10-30T17:08:40;5.03;;;4.27;;
6985;SDS011;3533;51.246;6.850;2022-10-30T17:11:15;5.50;;;5.00;;
6985;SDS011;3533;51.246;6.850;2022-10-30T17:16:20;7.40;;;4.87;;
6985;SDS011;3533;51.246;6.850;2022-10-30T17:18:54;7.33;;;5.57;;
6985;SDS011;3533;51.246;6.850;2022-10-30T17:21:26;5.93;;;4.73;;
6985;SDS011;3533;51.246;6.850;2022-10-30T17:24:19;6.07;;;5.47;;
6985;SDS011;3533;51.246;6.850;2022-10-30T17:26:53;6.10;;;5.60;;
6985;SDS011;3533;51.246;6.850;2022-10-30T17:32:02;6.00;;;5.50;;
6985;SDS011;3533;51.246;6.850;2022-10-30T17:34:28;6.87;;;6.23;;
6985;SDS011;3533;51.246;6.850;2022-10-30T17:36:54;6.83;;;6.13;;
6985;SDS011;3533;51.246;6.850;2022-10-30T17:39:23;6.57;;;5.67;;
6985;SDS011;3533;51.246;6.850;2022-10-30T17:41:49;6.80;;;5.40;;
6985;SDS011;3533;51.246;6.850;2022-10-30T17:44:18;6.57;;;6.07;;
6985;SDS011;3533;51.246;6.850;2022-10-30T17:46:46;6.70;;;6.00;;
6985;SDS011;3533;51.246;6.850;2022-10-30T17:49:18;5.70;;;5.20;;
6985;SDS011;3533;51.246;6.850;2022-10-30T17:51:51;6.97;;;6.27;;
6985;SDS011;3533;51.246;6.850;2022-10-30T17:54:17;6.50;;;6.00;;
6985;SDS011;3533;51.246;6.850;2022-10-30T17:56:42;10.93;;;5.40;;
6985;SDS011;3533;51.246;6.850;2022-10-30T17:59:08;5.37;;;4.97;;
6985;SDS011;3533;51.246;6.850;2022-10-30T18:01:34;6.30;;;5.20;;
6985;SDS011;3533;51.246;6.850;2022-10-30T18:03:59;6.23;;;5.57;;